Richmond North's Hourly Summary for Wednesday, July 11, 2018
Hour Temp
(f)
RH
(%)
Solar Rad.
(MJ/m2)
Rainfall
(in)
Wind
(mph)
7/11/2018 12:00 AM 74 96 0 0 0
7/11/2018 1:00 AM 73 97 0 0 0
7/11/2018 2:00 AM 72 98 0 0 0
7/11/2018 3:00 AM 72 99 0 0 0
7/11/2018 4:00 AM 72 99 0 0 0
7/11/2018 5:00 AM 72 99 0 0 0
7/11/2018 6:00 AM 71 99 0.01 0 0
7/11/2018 7:00 AM 74 99 0.34 0 0
7/11/2018 8:00 AM 79 82 0.84 0 0.53
7/11/2018 9:00 AM 83 71 1.46 0 1.85
7/11/2018 10:00 AM 84 65 2.13 0 1.96
7/11/2018 11:00 AM 86 59 2.95 0 2
7/11/2018 12:00 PM 88 54 3.33 0 1.97
7/11/2018 1:00 PM 89 49 3.37 0 2.57
7/11/2018 2:00 PM 90 44 3.15 0 2.64
7/11/2018 3:00 PM 91 46 2.79 0 1.53
7/11/2018 4:00 PM 92 46 2.44 0 1.67
7/11/2018 5:00 PM 92 42 1.8 0 1.37
7/11/2018 6:00 PM 92 42 1.1 0 0.8
7/11/2018 7:00 PM 87 65 0.36 0 2
7/11/2018 8:00 PM 82 72 0.02 0 0.42
7/11/2018 9:00 PM 80 85 0 0 0.62
7/11/2018 10:00 PM 78 87 0 0 0.23
7/11/2018 11:00 PM 77 87 0 0 0.11
Data Summary 81 74 26.09 0.00 0.93